sensor_id;sensor_type;location;lat;lon;timestamp;P1;durP1;ratioP1;P2;durP2;ratioP2
62796;SDS011;48839;48.546;-4.178;2022-09-09T00:03:26;13.18;;;3.05;;
62796;SDS011;48839;48.546;-4.178;2022-09-09T00:05:55;19.52;;;4.18;;
62796;SDS011;48839;48.546;-4.178;2022-09-09T00:08:26;15.70;;;2.65;;
62796;SDS011;48839;48.546;-4.178;2022-09-09T00:10:58;18.15;;;4.18;;
62796;SDS011;48839;48.546;-4.178;2022-09-09T00:21:17;10.80;;;2.92;;
62796;SDS011;48839;48.546;-4.178;2022-09-09T00:26:38;16.13;;;3.38;;
62796;SDS011;48839;48.546;-4.178;2022-09-09T00:31:37;15.55;;;2.95;;
62796;SDS011;48839;48.546;-4.178;2022-09-09T00:34:07;14.65;;;3.42;;
62796;SDS011;48839;48.546;-4.178;2022-09-09T00:36:36;18.13;;;3.55;;
62796;SDS011;48839;48.546;-4.178;2022-09-09T00:39:03;11.35;;;2.65;;
62796;SDS011;48839;48.546;-4.178;2022-09-09T00:44:33;16.02;;;4.15;;
62796;SDS011;48839;48.546;-4.178;2022-09-09T00:47:12;22.38;;;4.28;;
62796;SDS011;48839;48.546;-4.178;2022-09-09T00:52:37;18.40;;;3.67;;
62796;SDS011;48839;48.546;-4.178;2022-09-09T00:57:37;24.63;;;4.40;;
62796;SDS011;48839;48.546;-4.178;2022-09-09T01:07:49;15.88;;;3.42;;
62796;SDS011;48839;48.546;-4.178;2022-09-09T01:10:21;15.68;;;3.90;;
62796;SDS011;48839;48.546;-4.178;2022-09-09T01:12:50;15.25;;;3.20;;
62796;SDS011;48839;48.546;-4.178;2022-09-09T01:15:25;24.60;;;3.20;;
62796;SDS011;48839;48.546;-4.178;2022-09-09T01:23:04;14.20;;;3.20;;
62796;SDS011;48839;48.546;-4.178;2022-09-09T01:28:14;16.70;;;2.92;;
62796;SDS011;48839;48.546;-4.178;2022-09-09T01:30:41;15.00;;;3.00;;
62796;SDS011;48839;48.546;-4.178;2022-09-09T01:33:10;15.63;;;3.45;;
62796;SDS011;48839;48.546;-4.178;2022-09-09T01:38:16;16.75;;;3.78;;
62796;SDS011;48839;48.546;-4.178;2022-09-09T01:40:43;21.58;;;4.47;;
62796;SDS011;48839;48.546;-4.178;2022-09-09T01:43:09;16.17;;;3.25;;
62796;SDS011;48839;48.546;-4.178;2022-09-09T01:45:36;15.27;;;3.35;;
62796;SDS011;48839;48.546;-4.178;2022-09-09T01:48:03;15.02;;;3.00;;
62796;SDS011;48839;48.546;-4.178;2022-09-09T01:50:29;13.00;;;3.25;;
62796;SDS011;48839;48.546;-4.178;2022-09-09T01:52:59;22.70;;;4.25;;
62796;SDS011;48839;48.546;-4.178;2022-09-09T02:01:02;18.52;;;3.55;;
62796;SDS011;48839;48.546;-4.178;2022-09-09T02:03:29;16.35;;;3.30;;
62796;SDS011;48839;48.546;-4.178;2022-09-09T02:08:45;16.73;;;3.58;;
62796;SDS011;48839;48.546;-4.178;2022-09-09T02:11:13;12.65;;;2.92;;
62796;SDS011;48839;48.546;-4.178;2022-09-09T02:13:39;21.13;;;3.28;;
62796;SDS011;48839;48.546;-4.178;2022-09-09T02:16:15;12.05;;;2.97;;
62796;SDS011;48839;48.546;-4.178;2022-09-09T02:18:48;16.20;;;4.22;;
62796;SDS011;48839;48.546;-4.178;2022-09-09T02:23:42;17.17;;;3.33;;
62796;SDS011;48839;48.546;-4.178;2022-09-09T02:26:11;12.98;;;3.10;;
62796;SDS011;48839;48.546;-4.178;2022-09-09T02:28:39;13.80;;;3.00;;
62796;SDS011;48839;48.546;-4.178;2022-09-09T02:31:07;18.23;;;3.00;;
62796;SDS011;48839;48.546;-4.178;2022-09-09T02:33:37;16.10;;;3.00;;
62796;SDS011;48839;48.546;-4.178;2022-09-09T02:36:04;14.35;;;2.75;;
62796;SDS011;48839;48.546;-4.178;2022-09-09T02:38:34;17.02;;;3.17;;
62796;SDS011;48839;48.546;-4.178;2022-09-09T02:41:02;16.63;;;3.47;;
62796;SDS011;48839;48.546;-4.178;2022-09-09T02:43:32;13.85;;;3.92;;
62796;SDS011;48839;48.546;-4.178;2022-09-09T02:46:02;14.90;;;3.75;;
62796;SDS011;48839;48.546;-4.178;2022-09-09T02:48:52;14.07;;;2.90;;
62796;SDS011;48839;48.546;-4.178;2022-09-09T02:51:21;16.13;;;3.33;;
62796;SDS011;48839;48.546;-4.178;2022-09-09T02:54:12;17.80;;;3.58;;
62796;SDS011;48839;48.546;-4.178;2022-09-09T02:56:38;9.43;;;2.45;;
62796;SDS011;48839;48.546;-4.178;2022-09-09T02:59:05;13.40;;;2.95;;
62796;SDS011;48839;48.546;-4.178;2022-09-09T03:01:31;17.30;;;3.08;;
62796;SDS011;48839;48.546;-4.178;2022-09-09T03:03:57;14.30;;;3.08;;
62796;SDS011;48839;48.546;-4.178;2022-09-09T03:06:23;13.43;;;2.85;;
62796;SDS011;48839;48.546;-4.178;2022-09-09T03:08:49;15.23;;;3.20;;
62796;SDS011;48839;48.546;-4.178;2022-09-09T03:11:15;17.60;;;3.50;;
62796;SDS011;48839;48.546;-4.178;2022-09-09T03:13:41;15.90;;;3.10;;
62796;SDS011;48839;48.546;-4.178;2022-09-09T03:16:07;14.68;;;2.97;;
62796;SDS011;48839;48.546;-4.178;2022-09-09T03:18:33;14.77;;;2.35;;
62796;SDS011;48839;48.546;-4.178;2022-09-09T03:21:00;17.63;;;3.08;;
62796;SDS011;48839;48.546;-4.178;2022-09-09T03:23:26;13.10;;;3.60;;
62796;SDS011;48839;48.546;-4.178;2022-09-09T03:25:52;14.43;;;2.83;;
62796;SDS011;48839;48.546;-4.178;2022-09-09T03:28:21;14.98;;;2.92;;
62796;SDS011;48839;48.546;-4.178;2022-09-09T03:30:48;18.98;;;3.33;;
62796;SDS011;48839;48.546;-4.178;2022-09-09T03:33:14;11.73;;;3.00;;
62796;SDS011;48839;48.546;-4.178;2022-09-09T03:35:44;16.08;;;3.42;;
62796;SDS011;48839;48.546;-4.178;2022-09-09T03:38:12;14.30;;;2.88;;
62796;SDS011;48839;48.546;-4.178;2022-09-09T03:40:38;17.10;;;3.55;;
62796;SDS011;48839;48.546;-4.178;2022-09-09T03:43:04;12.10;;;2.15;;
62796;SDS011;48839;48.546;-4.178;2022-09-09T03:45:30;19.25;;;3.88;;
62796;SDS011;48839;48.546;-4.178;2022-09-09T03:47:56;21.73;;;3.97;;
62796;SDS011;48839;48.546;-4.178;2022-09-09T03:50:22;17.70;;;3.33;;
62796;SDS011;48839;48.546;-4.178;2022-09-09T03:52:48;9.02;;;3.05;;
62796;SDS011;48839;48.546;-4.178;2022-09-09T03:55:15;15.10;;;2.97;;
62796;SDS011;48839;48.546;-4.178;2022-09-09T03:57:41;8.07;;;2.42;;
62796;SDS011;48839;48.546;-4.178;2022-09-09T04:00:07;11.77;;;2.22;;
62796;SDS011;48839;48.546;-4.178;2022-09-09T04:02:33;12.13;;;2.92;;
62796;SDS011;48839;48.546;-4.178;2022-09-09T04:04:59;13.88;;;2.78;;
62796;SDS011;48839;48.546;-4.178;2022-09-09T04:07:26;13.30;;;2.60;;
62796;SDS011;48839;48.546;-4.178;2022-09-09T04:09:53;13.10;;;2.72;;
62796;SDS011;48839;48.546;-4.178;2022-09-09T04:12:19;10.27;;;2.83;;
62796;SDS011;48839;48.546;-4.178;2022-09-09T04:14:46;11.82;;;2.75;;
62796;SDS011;48839;48.546;-4.178;2022-09-09T04:17:12;10.40;;;2.63;;
62796;SDS011;48839;48.546;-4.178;2022-09-09T04:19:38;11.95;;;2.42;;
62796;SDS011;48839;48.546;-4.178;2022-09-09T04:22:04;7.43;;;2.08;;
62796;SDS011;48839;48.546;-4.178;2022-09-09T04:24:30;16.92;;;3.10;;
62796;SDS011;48839;48.546;-4.178;2022-09-09T04:26:56;10.77;;;2.30;;
62796;SDS011;48839;48.546;-4.178;2022-09-09T04:29:22;13.93;;;3.25;;
62796;SDS011;48839;48.546;-4.178;2022-09-09T04:31:48;20.45;;;3.40;;
62796;SDS011;48839;48.546;-4.178;2022-09-09T04:34:14;20.75;;;2.60;;
62796;SDS011;48839;48.546;-4.178;2022-09-09T04:36:40;14.15;;;3.45;;
62796;SDS011;48839;48.546;-4.178;2022-09-09T04:39:06;15.43;;;2.72;;
62796;SDS011;48839;48.546;-4.178;2022-09-09T04:41:32;9.25;;;2.78;;
62796;SDS011;48839;48.546;-4.178;2022-09-09T04:43:58;12.52;;;3.00;;
62796;SDS011;48839;48.546;-4.178;2022-09-09T04:46:25;15.18;;;3.47;;
62796;SDS011;48839;48.546;-4.178;2022-09-09T04:48:52;11.90;;;2.67;;
62796;SDS011;48839;48.546;-4.178;2022-09-09T04:51:18;11.02;;;2.83;;
62796;SDS011;48839;48.546;-4.178;2022-09-09T04:53:45;16.23;;;3.13;;
62796;SDS011;48839;48.546;-4.178;2022-09-09T04:56:16;12.32;;;3.25;;
62796;SDS011;48839;48.546;-4.178;2022-09-09T04:58:42;14.82;;;3.15;;
62796;SDS011;48839;48.546;-4.178;2022-09-09T05:01:10;12.55;;;3.40;;
62796;SDS011;48839;48.546;-4.178;2022-09-09T05:03:37;11.18;;;2.60;;
62796;SDS011;48839;48.546;-4.178;2022-09-09T05:06:06;14.93;;;3.22;;
62796;SDS011;48839;48.546;-4.178;2022-09-09T05:08:33;10.93;;;3.08;;
62796;SDS011;48839;48.546;-4.178;2022-09-09T05:10:59;12.32;;;3.63;;
62796;SDS011;48839;48.546;-4.178;2022-09-09T05:13:26;16.98;;;4.43;;
62796;SDS011;48839;48.546;-4.178;2022-09-09T05:15:53;15.57;;;3.63;;
62796;SDS011;48839;48.546;-4.178;2022-09-09T05:18:19;13.20;;;2.80;;
62796;SDS011;48839;48.546;-4.178;2022-09-09T05:20:47;10.57;;;3.03;;
62796;SDS011;48839;48.546;-4.178;2022-09-09T05:23:13;10.20;;;2.42;;
62796;SDS011;48839;48.546;-4.178;2022-09-09T05:25:40;11.02;;;2.53;;
62796;SDS011;48839;48.546;-4.178;2022-09-09T05:28:07;7.85;;;2.40;;
62796;SDS011;48839;48.546;-4.178;2022-09-09T05:30:33;13.40;;;3.03;;
62796;SDS011;48839;48.546;-4.178;2022-09-09T05:32:59;5.53;;;2.60;;
62796;SDS011;48839;48.546;-4.178;2022-09-09T05:35:26;9.20;;;3.28;;
62796;SDS011;48839;48.546;-4.178;2022-09-09T05:37:52;17.17;;;2.85;;
62796;SDS011;48839;48.546;-4.178;2022-09-09T05:40:18;13.10;;;3.00;;
62796;SDS011;48839;48.546;-4.178;2022-09-09T05:42:44;14.13;;;3.00;;
62796;SDS011;48839;48.546;-4.178;2022-09-09T05:45:10;13.00;;;3.88;;
62796;SDS011;48839;48.546;-4.178;2022-09-09T05:47:36;17.02;;;3.20;;
62796;SDS011;48839;48.546;-4.178;2022-09-09T05:50:02;14.68;;;2.63;;
62796;SDS011;48839;48.546;-4.178;2022-09-09T05:52:28;11.50;;;2.67;;
62796;SDS011;48839;48.546;-4.178;2022-09-09T05:54:54;8.30;;;2.30;;
62796;SDS011;48839;48.546;-4.178;2022-09-09T05:57:22;8.00;;;2.05;;
62796;SDS011;48839;48.546;-4.178;2022-09-09T05:59:48;8.90;;;2.38;;
62796;SDS011;48839;48.546;-4.178;2022-09-09T06:02:14;12.68;;;2.97;;
62796;SDS011;48839;48.546;-4.178;2022-09-09T06:04:41;17.17;;;2.78;;
62796;SDS011;48839;48.546;-4.178;2022-09-09T06:07:07;7.60;;;2.55;;
62796;SDS011;48839;48.546;-4.178;2022-09-09T06:09:33;8.43;;;2.50;;
62796;SDS011;48839;48.546;-4.178;2022-09-09T06:11:59;13.07;;;2.90;;
62796;SDS011;48839;48.546;-4.178;2022-09-09T06:14:25;10.93;;;2.72;;
62796;SDS011;48839;48.546;-4.178;2022-09-09T06:16:52;7.53;;;2.33;;
62796;SDS011;48839;48.546;-4.178;2022-09-09T06:19:18;13.13;;;3.05;;
62796;SDS011;48839;48.546;-4.178;2022-09-09T06:21:45;8.88;;;2.60;;
62796;SDS011;48839;48.546;-4.178;2022-09-09T06:24:12;10.77;;;2.60;;
62796;SDS011;48839;48.546;-4.178;2022-09-09T06:26:42;9.98;;;2.70;;
62796;SDS011;48839;48.546;-4.178;2022-09-09T06:29:10;13.20;;;2.50;;
62796;SDS011;48839;48.546;-4.178;2022-09-09T06:31:36;11.25;;;2.65;;
62796;SDS011;48839;48.546;-4.178;2022-09-09T06:34:04;14.20;;;3.40;;
62796;SDS011;48839;48.546;-4.178;2022-09-09T06:36:31;11.55;;;3.88;;
62796;SDS011;48839;48.546;-4.178;2022-09-09T06:38:58;10.00;;;2.90;;
62796;SDS011;48839;48.546;-4.178;2022-09-09T06:41:25;12.57;;;3.80;;
62796;SDS011;48839;48.546;-4.178;2022-09-09T06:43:52;13.50;;;2.88;;
62796;SDS011;48839;48.546;-4.178;2022-09-09T06:46:18;8.90;;;2.78;;
62796;SDS011;48839;48.546;-4.178;2022-09-09T06:48:45;18.83;;;3.42;;
62796;SDS011;48839;48.546;-4.178;2022-09-09T06:51:18;18.95;;;3.38;;
62796;SDS011;48839;48.546;-4.178;2022-09-09T06:53:46;20.15;;;3.42;;
62796;SDS011;48839;48.546;-4.178;2022-09-09T07:01:17;12.95;;;2.92;;
62796;SDS011;48839;48.546;-4.178;2022-09-09T07:03:47;12.65;;;2.80;;
62796;SDS011;48839;48.546;-4.178;2022-09-09T07:06:22;10.27;;;2.80;;
62796;SDS011;48839;48.546;-4.178;2022-09-09T07:11:15;9.02;;;3.00;;
62796;SDS011;48839;48.546;-4.178;2022-09-09T07:13:41;15.48;;;2.75;;
62796;SDS011;48839;48.546;-4.178;2022-09-09T07:16:09;13.70;;;4.15;;
62796;SDS011;48839;48.546;-4.178;2022-09-09T07:18:35;17.17;;;3.22;;
62796;SDS011;48839;48.546;-4.178;2022-09-09T07:21:02;14.00;;;3.00;;
62796;SDS011;48839;48.546;-4.178;2022-09-09T07:23:29;10.15;;;2.53;;
62796;SDS011;48839;48.546;-4.178;2022-09-09T07:25:55;11.68;;;2.75;;
62796;SDS011;48839;48.546;-4.178;2022-09-09T07:28:21;12.90;;;3.15;;
62796;SDS011;48839;48.546;-4.178;2022-09-09T07:30:58;9.43;;;2.65;;
62796;SDS011;48839;48.546;-4.178;2022-09-09T07:33:25;9.07;;;2.42;;
62796;SDS011;48839;48.546;-4.178;2022-09-09T07:35:51;12.52;;;2.80;;
62796;SDS011;48839;48.546;-4.178;2022-09-09T07:38:18;9.82;;;2.30;;
62796;SDS011;48839;48.546;-4.178;2022-09-09T07:40:45;8.55;;;2.13;;
62796;SDS011;48839;48.546;-4.178;2022-09-09T07:43:11;11.98;;;2.55;;
62796;SDS011;48839;48.546;-4.178;2022-09-09T07:45:38;5.63;;;2.22;;
62796;SDS011;48839;48.546;-4.178;2022-09-09T07:48:05;7.20;;;2.40;;
62796;SDS011;48839;48.546;-4.178;2022-09-09T07:50:31;10.05;;;2.50;;
62796;SDS011;48839;48.546;-4.178;2022-09-09T07:52:57;17.05;;;2.78;;
62796;SDS011;48839;48.546;-4.178;2022-09-09T07:55:24;10.88;;;2.85;;
62796;SDS011;48839;48.546;-4.178;2022-09-09T07:57:52;8.60;;;2.35;;
62796;SDS011;48839;48.546;-4.178;2022-09-09T08:00:18;10.02;;;2.17;;
62796;SDS011;48839;48.546;-4.178;2022-09-09T08:02:44;10.23;;;1.98;;
62796;SDS011;48839;48.546;-4.178;2022-09-09T08:05:11;11.23;;;3.15;;
62796;SDS011;48839;48.546;-4.178;2022-09-09T08:07:37;8.70;;;2.35;;
62796;SDS011;48839;48.546;-4.178;2022-09-09T08:10:03;8.40;;;1.98;;
62796;SDS011;48839;48.546;-4.178;2022-09-09T08:12:31;12.40;;;2.45;;
62796;SDS011;48839;48.546;-4.178;2022-09-09T08:14:57;7.57;;;1.67;;
62796;SDS011;48839;48.546;-4.178;2022-09-09T08:17:23;9.00;;;2.33;;
62796;SDS011;48839;48.546;-4.178;2022-09-09T08:19:49;9.55;;;2.15;;
62796;SDS011;48839;48.546;-4.178;2022-09-09T08:22:15;6.85;;;2.28;;
62796;SDS011;48839;48.546;-4.178;2022-09-09T08:24:41;8.55;;;1.73;;
62796;SDS011;48839;48.546;-4.178;2022-09-09T08:27:07;7.05;;;1.63;;
62796;SDS011;48839;48.546;-4.178;2022-09-09T08:29:34;11.35;;;2.30;;
62796;SDS011;48839;48.546;-4.178;2022-09-09T08:32:02;12.02;;;1.83;;
62796;SDS011;48839;48.546;-4.178;2022-09-09T08:34:29;9.82;;;2.33;;
62796;SDS011;48839;48.546;-4.178;2022-09-09T08:36:56;10.95;;;1.75;;
62796;SDS011;48839;48.546;-4.178;2022-09-09T08:39:22;6.53;;;1.90;;
62796;SDS011;48839;48.546;-4.178;2022-09-09T08:55:35;9.15;;;2.25;;
62796;SDS011;48839;48.546;-4.178;2022-09-09T08:57:51;4.97;;;1.67;;
62796;SDS011;48839;48.546;-4.178;2022-09-09T09:00:19;8.95;;;2.03;;
62796;SDS011;48839;48.546;-4.178;2022-09-09T09:05:23;8.00;;;1.83;;
62796;SDS011;48839;48.546;-4.178;2022-09-09T09:10:38;7.70;;;1.98;;
62796;SDS011;48839;48.546;-4.178;2022-09-09T09:13:14;7.47;;;1.70;;
62796;SDS011;48839;48.546;-4.178;2022-09-09T09:15:41;11.75;;;1.52;;
62796;SDS011;48839;48.546;-4.178;2022-09-09T09:18:08;6.03;;;1.85;;
62796;SDS011;48839;48.546;-4.178;2022-09-09T09:23:11;6.47;;;1.88;;
62796;SDS011;48839;48.546;-4.178;2022-09-09T09:25:39;10.48;;;2.05;;
62796;SDS011;48839;48.546;-4.178;2022-09-09T09:28:17;9.00;;;2.00;;
62796;SDS011;48839;48.546;-4.178;2022-09-09T09:30:45;7.03;;;1.63;;
62796;SDS011;48839;48.546;-4.178;2022-09-09T09:33:16;4.68;;;1.50;;
62796;SDS011;48839;48.546;-4.178;2022-09-09T09:35:44;8.05;;;2.25;;
62796;SDS011;48839;48.546;-4.178;2022-09-09T09:38:20;8.88;;;1.67;;
62796;SDS011;48839;48.546;-4.178;2022-09-09T09:41:05;8.25;;;1.42;;
62796;SDS011;48839;48.546;-4.178;2022-09-09T09:43:35;15.15;;;1.83;;
62796;SDS011;48839;48.546;-4.178;2022-09-09T09:46:04;7.05;;;2.00;;
62796;SDS011;48839;48.546;-4.178;2022-09-09T09:48:31;9.10;;;2.00;;
62796;SDS011;48839;48.546;-4.178;2022-09-09T09:51:16;11.18;;;1.77;;
62796;SDS011;48839;48.546;-4.178;2022-09-09T09:53:43;6.55;;;1.80;;
62796;SDS011;48839;48.546;-4.178;2022-09-09T09:56:10;10.35;;;2.30;;
62796;SDS011;48839;48.546;-4.178;2022-09-09T10:01:25;6.65;;;1.80;;
62796;SDS011;48839;48.546;-4.178;2022-09-09T10:04:00;9.57;;;1.70;;
62796;SDS011;48839;48.546;-4.178;2022-09-09T10:06:33;8.73;;;1.90;;
62796;SDS011;48839;48.546;-4.178;2022-09-09T10:08:59;6.07;;;1.45;;
62796;SDS011;48839;48.546;-4.178;2022-09-09T10:16:56;9.18;;;2.25;;
62796;SDS011;48839;48.546;-4.178;2022-09-09T10:19:31;5.38;;;1.33;;
62796;SDS011;48839;48.546;-4.178;2022-09-09T10:40:31;5.63;;;1.30;;
62796;SDS011;48839;48.546;-4.178;2022-09-09T10:56:08;2.92;;;1.50;;
62796;SDS011;48839;48.546;-4.178;2022-09-09T10:58:40;3.60;;;1.00;;
62796;SDS011;48839;48.546;-4.178;2022-09-09T11:01:13;9.00;;;1.15;;
62796;SDS011;48839;48.546;-4.178;2022-09-09T11:03:41;6.15;;;1.30;;
62796;SDS011;48839;48.546;-4.178;2022-09-09T11:06:21;3.85;;;1.00;;
62796;SDS011;48839;48.546;-4.178;2022-09-09T11:08:50;1.88;;;0.70;;
62796;SDS011;48839;48.546;-4.178;2022-09-09T11:11:24;6.25;;;1.05;;
62796;SDS011;48839;48.546;-4.178;2022-09-09T11:18:45;2.35;;;0.70;;
62796;SDS011;48839;48.546;-4.178;2022-09-09T11:21:34;1.05;;;0.70;;
62796;SDS011;48839;48.546;-4.178;2022-09-09T11:24:00;3.42;;;0.60;;
62796;SDS011;48839;48.546;-4.178;2022-09-09T11:26:29;1.55;;;0.68;;
62796;SDS011;48839;48.546;-4.178;2022-09-09T11:31:44;2.55;;;0.80;;
62796;SDS011;48839;48.546;-4.178;2022-09-09T11:34:32;3.20;;;0.52;;
62796;SDS011;48839;48.546;-4.178;2022-09-09T11:42:07;2.95;;;0.88;;
62796;SDS011;48839;48.546;-4.178;2022-09-09T11:44:33;2.20;;;0.70;;
62796;SDS011;48839;48.546;-4.178;2022-09-09T11:46:59;4.05;;;0.77;;
62796;SDS011;48839;48.546;-4.178;2022-09-09T11:49:27;3.92;;;0.85;;
62796;SDS011;48839;48.546;-4.178;2022-09-09T11:51:53;2.97;;;0.95;;
62796;SDS011;48839;48.546;-4.178;2022-09-09T11:54:30;2.15;;;0.68;;
62796;SDS011;48839;48.546;-4.178;2022-09-09T11:56:57;3.50;;;0.95;;
62796;SDS011;48839;48.546;-4.178;2022-09-09T11:59:27;2.15;;;0.75;;
62796;SDS011;48839;48.546;-4.178;2022-09-09T12:01:58;6.38;;;1.27;;
62796;SDS011;48839;48.546;-4.178;2022-09-09T12:09:25;2.60;;;0.85;;
62796;SDS011;48839;48.546;-4.178;2022-09-09T12:11:52;3.95;;;0.82;;
62796;SDS011;48839;48.546;-4.178;2022-09-09T12:14:23;4.63;;;1.20;;
62796;SDS011;48839;48.546;-4.178;2022-09-09T12:17:09;5.50;;;1.27;;
62796;SDS011;48839;48.546;-4.178;2022-09-09T12:19:35;3.92;;;0.90;;
62796;SDS011;48839;48.546;-4.178;2022-09-09T12:22:04;2.83;;;1.00;;
62796;SDS011;48839;48.546;-4.178;2022-09-09T12:27:28;5.55;;;1.85;;
62796;SDS011;48839;48.546;-4.178;2022-09-09T12:30:04;3.92;;;1.08;;
62796;SDS011;48839;48.546;-4.178;2022-09-09T12:32:34;8.30;;;1.10;;
62796;SDS011;48839;48.546;-4.178;2022-09-09T12:39:58;3.63;;;0.85;;
62796;SDS011;48839;48.546;-4.178;2022-09-09T12:42:25;2.65;;;0.88;;
62796;SDS011;48839;48.546;-4.178;2022-09-09T12:44:58;6.40;;;1.10;;
62796;SDS011;48839;48.546;-4.178;2022-09-09T12:48:10;5.20;;;1.00;;
62796;SDS011;48839;48.546;-4.178;2022-09-09T12:50:27;5.72;;;1.10;;
62796;SDS011;48839;48.546;-4.178;2022-09-09T12:55:53;6.97;;;1.38;;
62796;SDS011;48839;48.546;-4.178;2022-09-09T12:58:21;4.72;;;1.63;;
62796;SDS011;48839;48.546;-4.178;2022-09-09T13:00:53;6.47;;;1.38;;
62796;SDS011;48839;48.546;-4.178;2022-09-09T13:03:23;5.05;;;1.58;;
62796;SDS011;48839;48.546;-4.178;2022-09-09T13:05:50;5.53;;;1.50;;
62796;SDS011;48839;48.546;-4.178;2022-09-09T13:08:16;3.33;;;1.33;;
62796;SDS011;48839;48.546;-4.178;2022-09-09T13:10:47;6.30;;;1.75;;
62796;SDS011;48839;48.546;-4.178;2022-09-09T13:13:21;8.30;;;1.40;;
62796;SDS011;48839;48.546;-4.178;2022-09-09T13:15:48;6.88;;;1.13;;
62796;SDS011;48839;48.546;-4.178;2022-09-09T13:18:15;3.92;;;0.95;;
62796;SDS011;48839;48.546;-4.178;2022-09-09T13:20:45;4.28;;;1.15;;
62796;SDS011;48839;48.546;-4.178;2022-09-09T13:23:12;4.57;;;1.35;;
62796;SDS011;48839;48.546;-4.178;2022-09-09T13:25:38;4.95;;;1.25;;
62796;SDS011;48839;48.546;-4.178;2022-09-09T13:28:05;6.15;;;1.48;;
62796;SDS011;48839;48.546;-4.178;2022-09-09T13:33:02;4.65;;;1.75;;
62796;SDS011;48839;48.546;-4.178;2022-09-09T13:35:29;4.30;;;1.30;;
62796;SDS011;48839;48.546;-4.178;2022-09-09T13:37:55;6.10;;;1.40;;
62796;SDS011;48839;48.546;-4.178;2022-09-09T13:40:21;7.28;;;1.50;;
62796;SDS011;48839;48.546;-4.178;2022-09-09T13:42:52;3.08;;;1.20;;
62796;SDS011;48839;48.546;-4.178;2022-09-09T13:45:21;9.13;;;1.42;;
62796;SDS011;48839;48.546;-4.178;2022-09-09T13:47:48;3.78;;;1.10;;
62796;SDS011;48839;48.546;-4.178;2022-09-09T13:52:50;5.30;;;1.55;;
62796;SDS011;48839;48.546;-4.178;2022-09-09T13:55:16;5.28;;;1.45;;
62796;SDS011;48839;48.546;-4.178;2022-09-09T13:58:01;3.90;;;1.35;;
62796;SDS011;48839;48.546;-4.178;2022-09-09T14:00:32;5.18;;;1.17;;
62796;SDS011;48839;48.546;-4.178;2022-09-09T14:02:58;5.28;;;1.35;;
62796;SDS011;48839;48.546;-4.178;2022-09-09T14:05:28;4.57;;;1.20;;
62796;SDS011;48839;48.546;-4.178;2022-09-09T14:07:55;7.60;;;1.30;;
62796;SDS011;48839;48.546;-4.178;2022-09-09T14:10:21;6.20;;;1.20;;
62796;SDS011;48839;48.546;-4.178;2022-09-09T14:12:47;2.53;;;1.20;;
62796;SDS011;48839;48.546;-4.178;2022-09-09T14:15:13;5.30;;;1.10;;
62796;SDS011;48839;48.546;-4.178;2022-09-09T14:17:40;2.63;;;1.00;;
62796;SDS011;48839;48.546;-4.178;2022-09-09T14:20:06;4.75;;;1.85;;
62796;SDS011;48839;48.546;-4.178;2022-09-09T14:22:33;3.85;;;1.05;;
62796;SDS011;48839;48.546;-4.178;2022-09-09T14:24:59;3.72;;;1.17;;
62796;SDS011;48839;48.546;-4.178;2022-09-09T14:27:25;6.35;;;1.40;;
62796;SDS011;48839;48.546;-4.178;2022-09-09T14:29:55;10.50;;;1.65;;
62796;SDS011;48839;48.546;-4.178;2022-09-09T14:32:22;3.35;;;1.35;;
62796;SDS011;48839;48.546;-4.178;2022-09-09T14:34:48;7.35;;;1.45;;
62796;SDS011;48839;48.546;-4.178;2022-09-09T14:37:15;6.68;;;1.27;;
62796;SDS011;48839;48.546;-4.178;2022-09-09T14:39:41;6.07;;;1.33;;
62796;SDS011;48839;48.546;-4.178;2022-09-09T14:42:09;3.15;;;1.15;;
62796;SDS011;48839;48.546;-4.178;2022-09-09T14:44:36;8.25;;;1.65;;
62796;SDS011;48839;48.546;-4.178;2022-09-09T14:47:03;6.00;;;2.10;;
62796;SDS011;48839;48.546;-4.178;2022-09-09T14:49:29;5.45;;;1.40;;
62796;SDS011;48839;48.546;-4.178;2022-09-09T14:51:56;7.60;;;1.27;;
62796;SDS011;48839;48.546;-4.178;2022-09-09T14:54:22;9.98;;;1.98;;
62796;SDS011;48839;48.546;-4.178;2022-09-09T14:56:48;3.75;;;1.17;;
62796;SDS011;48839;48.546;-4.178;2022-09-09T14:59:14;7.75;;;1.45;;
62796;SDS011;48839;48.546;-4.178;2022-09-09T15:01:40;4.88;;;1.55;;
62796;SDS011;48839;48.546;-4.178;2022-09-09T15:04:06;8.68;;;1.27;;
62796;SDS011;48839;48.546;-4.178;2022-09-09T15:06:33;4.35;;;1.10;;
62796;SDS011;48839;48.546;-4.178;2022-09-09T15:09:01;4.80;;;1.48;;
62796;SDS011;48839;48.546;-4.178;2022-09-09T15:11:29;5.95;;;1.35;;
62796;SDS011;48839;48.546;-4.178;2022-09-09T15:13:55;6.80;;;1.23;;
62796;SDS011;48839;48.546;-4.178;2022-09-09T15:16:23;5.97;;;1.50;;
62796;SDS011;48839;48.546;-4.178;2022-09-09T15:18:50;7.20;;;1.30;;
62796;SDS011;48839;48.546;-4.178;2022-09-09T15:21:19;6.55;;;1.55;;
62796;SDS011;48839;48.546;-4.178;2022-09-09T15:23:46;5.47;;;1.45;;
62796;SDS011;48839;48.546;-4.178;2022-09-09T15:26:15;4.00;;;1.00;;
62796;SDS011;48839;48.546;-4.178;2022-09-09T15:28:42;7.05;;;1.13;;
62796;SDS011;48839;48.546;-4.178;2022-09-09T15:31:24;5.55;;;1.08;;
62796;SDS011;48839;48.546;-4.178;2022-09-09T15:33:52;9.55;;;1.65;;
62796;SDS011;48839;48.546;-4.178;2022-09-09T15:36:18;8.35;;;1.25;;
62796;SDS011;48839;48.546;-4.178;2022-09-09T15:38:45;8.18;;;1.30;;
62796;SDS011;48839;48.546;-4.178;2022-09-09T15:41:11;7.57;;;1.70;;
62796;SDS011;48839;48.546;-4.178;2022-09-09T15:43:37;5.20;;;1.08;;
62796;SDS011;48839;48.546;-4.178;2022-09-09T15:48:42;5.18;;;1.38;;
62796;SDS011;48839;48.546;-4.178;2022-09-09T15:51:09;5.75;;;1.20;;
62796;SDS011;48839;48.546;-4.178;2022-09-09T15:53:36;8.63;;;1.92;;
62796;SDS011;48839;48.546;-4.178;2022-09-09T15:56:04;6.70;;;1.90;;
62796;SDS011;48839;48.546;-4.178;2022-09-09T15:58:31;6.85;;;1.83;;
62796;SDS011;48839;48.546;-4.178;2022-09-09T16:01:07;8.60;;;1.63;;
62796;SDS011;48839;48.546;-4.178;2022-09-09T16:03:34;5.00;;;1.40;;
62796;SDS011;48839;48.546;-4.178;2022-09-09T16:06:00;4.88;;;1.63;;
62796;SDS011;48839;48.546;-4.178;2022-09-09T16:08:36;8.60;;;1.65;;
62796;SDS011;48839;48.546;-4.178;2022-09-09T16:11:12;5.38;;;1.27;;
62796;SDS011;48839;48.546;-4.178;2022-09-09T16:13:40;4.28;;;1.15;;
62796;SDS011;48839;48.546;-4.178;2022-09-09T16:16:06;3.72;;;1.40;;
62796;SDS011;48839;48.546;-4.178;2022-09-09T16:18:34;5.20;;;1.15;;
62796;SDS011;48839;48.546;-4.178;2022-09-09T16:21:00;4.60;;;1.10;;
62796;SDS011;48839;48.546;-4.178;2022-09-09T16:23:27;4.85;;;1.25;;
62796;SDS011;48839;48.546;-4.178;2022-09-09T16:25:53;3.90;;;1.55;;
62796;SDS011;48839;48.546;-4.178;2022-09-09T16:28:20;8.80;;;1.70;;
62796;SDS011;48839;48.546;-4.178;2022-09-09T16:30:46;7.55;;;1.58;;
62796;SDS011;48839;48.546;-4.178;2022-09-09T16:33:12;5.85;;;1.40;;
62796;SDS011;48839;48.546;-4.178;2022-09-09T16:35:39;8.80;;;1.30;;
62796;SDS011;48839;48.546;-4.178;2022-09-09T16:38:05;8.07;;;2.00;;
62796;SDS011;48839;48.546;-4.178;2022-09-09T16:40:35;5.55;;;1.50;;
62796;SDS011;48839;48.546;-4.178;2022-09-09T16:43:01;5.57;;;1.42;;
62796;SDS011;48839;48.546;-4.178;2022-09-09T16:45:27;4.55;;;1.23;;
62796;SDS011;48839;48.546;-4.178;2022-09-09T16:47:54;11.77;;;2.25;;
62796;SDS011;48839;48.546;-4.178;2022-09-09T16:50:20;7.25;;;1.35;;
62796;SDS011;48839;48.546;-4.178;2022-09-09T16:52:46;6.53;;;1.73;;
62796;SDS011;48839;48.546;-4.178;2022-09-09T16:55:12;8.52;;;1.45;;
62796;SDS011;48839;48.546;-4.178;2022-09-09T16:57:38;5.25;;;1.20;;
62796;SDS011;48839;48.546;-4.178;2022-09-09T17:00:07;2.95;;;1.30;;
62796;SDS011;48839;48.546;-4.178;2022-09-09T17:02:33;2.53;;;1.08;;
62796;SDS011;48839;48.546;-4.178;2022-09-09T17:04:59;7.18;;;1.50;;
62796;SDS011;48839;48.546;-4.178;2022-09-09T17:07:25;4.72;;;1.33;;
62796;SDS011;48839;48.546;-4.178;2022-09-09T17:09:52;7.55;;;1.40;;
62796;SDS011;48839;48.546;-4.178;2022-09-09T17:12:19;3.97;;;1.00;;